Hauptseite
METAR-TAF:

METAR-TAF

Flughäfen :

Shonai, Japan

Breite: 38-49N, Länge: 139-47E, Höhe: 22 m

Beobachtung

Neuester Wetterbericht von vor 1 Stunde und 37 Minuten, um 12:00 UTC
Wind 16 kt aus Ost/Südost
Temperatur 14°C
Luftfeuchtigkeit 72%
Luftdruck 1015 hPa
Sichtweite 10 km oder mehr
Leicht bewölkt in der Höhe von 3000 ft
Aufgelockert bewölkt

METAR: RJSY 231200Z 11016KT 9999 FEW030 SCT/// 14/09 Q1015

Zeit: 22:37 (13:37 UTC)


TAF: fehlend

Wetterbeobachtungen und Prognosen von mehr als 4000 Flughäfen (METAR und TAF Bericht).

Die verfügbaren Stationen werden durch gelbe und rote Markierungen auf der Karte dargestellt.

Führen Sie die Maus auf sie, um den Namen der Station zu sehen.

Darauf klicken, um die Beobachtung von Wetterbeobachtungen und Prognosen zu sehen.

Um die Karte zu ändern : klicken Sie auf den grünen Tasten mit einem schwarzen Kreuz Zum Vergrößern, auf den grünen Button mit einem Gedankenstrich zu verkleinern, oder auf die grünen Pfeile für benachbarte Karten.


METAR-TAF: